createdAt,value
2023-11-04T00:01:47.449Z,2.12
2023-11-04T00:04:15.268Z,2.50
2023-11-04T00:06:42.786Z,2.65
2023-11-04T00:09:17.098Z,2.15
2023-11-04T00:11:47.015Z,2.35
2023-11-04T00:14:14.811Z,2.12
2023-11-04T00:16:42.237Z,2.10
2023-11-04T00:19:10.040Z,2.20
2023-11-04T00:21:42.871Z,2.08
2023-11-04T00:24:11.378Z,2.78
2023-11-04T00:26:39.242Z,2.00
2023-11-04T00:29:06.802Z,2.55
2023-11-04T00:31:37.266Z,2.58
2023-11-04T00:34:24.938Z,2.58
2023-11-04T00:37:12.581Z,2.17
2023-11-04T00:40:02.234Z,2.00
2023-11-04T00:42:49.922Z,2.33
2023-11-04T00:45:37.324Z,2.33
2023-11-04T00:48:24.982Z,2.42
2023-11-04T00:51:12.853Z,2.97
2023-11-04T00:54:00.741Z,2.20
2023-11-04T00:56:48.405Z,2.25
2023-11-04T00:59:35.983Z,2.00
2023-11-04T01:02:23.275Z,2.28
2023-11-04T01:05:12.348Z,1.90
2023-11-04T01:08:00.357Z,2.20
2023-11-04T01:10:48.605Z,2.50
2023-11-04T01:13:36.276Z,3.33
2023-11-04T01:16:23.892Z,3.53
2023-11-04T01:19:11.209Z,3.78
2023-11-04T01:21:59.268Z,3.55
2023-11-04T01:24:46.546Z,4.10
2023-11-04T01:27:34.306Z,3.87
2023-11-04T01:30:21.729Z,2.60
2023-11-04T01:33:10.321Z,2.10
2023-11-04T01:35:58.332Z,1.60
2023-11-04T01:38:45.944Z,1.23
2023-11-04T01:41:33.233Z,1.37
2023-11-04T01:44:20.950Z,1.00
2023-11-04T01:47:08.311Z,1.05
2023-11-04T01:49:55.896Z,1.17
2023-11-04T01:52:44.251Z,1.27
2023-11-04T01:55:31.938Z,1.30
2023-11-04T01:58:19.536Z,1.40
2023-11-04T02:01:07.624Z,1.58
2023-11-04T02:03:55.409Z,1.30
2023-11-04T02:06:44.675Z,1.30
2023-11-04T02:09:32.367Z,1.37
2023-11-04T02:12:21.781Z,1.10
2023-11-04T02:15:16.220Z,1.10
2023-11-04T02:18:04.664Z,1.48
2023-11-04T02:20:53.925Z,1.35
2023-11-04T02:23:41.222Z,1.17
2023-11-04T02:26:29.136Z,1.35
2023-11-04T02:29:16.430Z,4.43
2023-11-04T02:32:04.242Z,1.27
2023-11-04T02:34:51.566Z,1.45
2023-11-04T02:37:39.123Z,1.35
2023-11-04T02:40:26.396Z,1.12
2023-11-04T02:43:14.151Z,1.25
2023-11-04T02:46:01.461Z,1.58
2023-11-04T02:48:49.572Z,1.60
2023-11-04T02:51:36.914Z,1.40
2023-11-04T02:54:24.617Z,1.62
2023-11-04T02:57:13.134Z,1.40
2023-11-04T03:00:00.729Z,0.90
2023-11-04T03:02:48.070Z,0.95
2023-11-04T03:05:37.949Z,0.98
2023-11-04T03:08:27.223Z,1.00
2023-11-04T03:11:14.925Z,0.75
2023-11-04T03:14:02.734Z,0.57
2023-11-04T03:16:52.778Z,0.70
2023-11-04T03:19:40.441Z,0.60
2023-11-04T03:22:28.046Z,0.80
2023-11-04T03:25:16.577Z,1.12
2023-11-04T03:28:04.515Z,0.90
2023-11-04T03:30:51.859Z,0.68
2023-11-04T03:33:39.820Z,0.80
2023-11-04T03:36:27.284Z,0.60
2023-11-04T03:39:15.146Z,0.80
2023-11-04T03:42:02.608Z,0.80
2023-11-04T03:44:50.116Z,0.93
2023-11-04T03:47:37.526Z,0.90
2023-11-04T03:50:25.154Z,1.00
2023-11-04T03:53:12.446Z,1.23
2023-11-04T03:56:00.096Z,1.45
2023-11-04T03:58:47.631Z,1.20
2023-11-04T04:01:41.781Z,1.25
2023-11-04T04:04:29.523Z,1.20
2023-11-04T04:07:16.885Z,0.93
2023-11-04T04:10:04.674Z,0.80
2023-11-04T04:12:53.087Z,0.80
2023-11-04T04:15:40.882Z,0.90
2023-11-04T04:18:28.369Z,0.80
2023-11-04T04:21:16.722Z,0.80
2023-11-04T04:24:04.391Z,0.80
2023-11-04T04:26:52.047Z,0.85
2023-11-04T04:29:39.363Z,1.02
2023-11-04T04:32:27.003Z,0.80
2023-11-04T04:35:14.563Z,1.23
2023-11-04T04:38:02.142Z,1.65
2023-11-04T04:40:49.405Z,1.30
2023-11-04T04:43:37.875Z,1.30
2023-11-04T04:46:25.215Z,1.40
2023-11-04T04:49:13.071Z,1.55
2023-11-04T04:52:00.491Z,1.80
2023-11-04T04:54:48.130Z,2.20
2023-11-04T04:57:36.825Z,1.70
2023-11-04T05:00:24.607Z,2.00
2023-11-04T05:03:13.212Z,2.35
2023-11-04T05:06:00.992Z,1.58
2023-11-04T05:08:48.293Z,1.40
2023-11-04T05:11:35.885Z,1.55
2023-11-04T05:14:23.555Z,1.20
2023-11-04T05:17:11.127Z,1.42
2023-11-04T05:19:58.419Z,1.02
2023-11-04T05:22:45.987Z,1.30
2023-11-04T05:25:35.996Z,1.50
2023-11-04T05:28:25.520Z,1.40
2023-11-04T05:31:13.051Z,1.50
2023-11-04T05:34:00.710Z,1.40
2023-11-04T05:36:48.027Z,1.73
2023-11-04T05:39:35.754Z,1.62
2023-11-04T05:42:24.601Z,1.30
2023-11-04T05:45:12.545Z,1.40
2023-11-04T05:48:00.030Z,1.35
2023-11-04T05:50:48.130Z,0.90
2023-11-04T05:53:35.586Z,0.90
2023-11-04T05:56:23.256Z,1.23
2023-11-04T05:59:10.532Z,1.05
2023-11-04T06:01:58.242Z,1.17
2023-11-04T06:04:45.907Z,1.40
2023-11-04T06:07:33.936Z,1.33
2023-11-04T06:10:22.776Z,1.50
2023-11-04T06:13:10.130Z,1.40
2023-11-04T06:15:57.789Z,1.17
2023-11-04T06:18:46.546Z,1.30
2023-11-04T06:21:34.725Z,0.95
2023-11-04T06:24:22.040Z,1.10
2023-11-04T06:27:09.599Z,1.55
2023-11-04T06:29:56.878Z,1.80
2023-11-04T06:32:44.511Z,1.98
2023-11-04T06:35:34.580Z,2.25
2023-11-04T06:38:22.146Z,1.85
2023-11-04T06:41:17.925Z,2.00
2023-11-04T06:44:05.917Z,1.75
2023-11-04T06:46:56.085Z,1.70
2023-11-04T06:49:43.729Z,1.30
2023-11-04T06:52:31.290Z,1.55
2023-11-04T06:54:59.162Z,1.50
2023-11-04T06:57:26.644Z,1.40
2023-11-04T06:59:54.341Z,1.45
2023-11-04T07:02:22.338Z,2.25
2023-11-04T07:04:50.500Z,4.05
2023-11-04T07:07:17.974Z,3.08
2023-11-04T07:09:46.258Z,2.33
2023-11-04T07:12:13.675Z,2.17
2023-11-04T07:14:41.089Z,1.65
2023-11-04T07:17:08.743Z,1.70
2023-11-04T07:19:36.194Z,1.80
2023-11-04T07:22:03.689Z,2.12
2023-11-04T07:24:31.391Z,1.73
2023-11-04T07:26:58.762Z,1.50
2023-11-04T07:29:26.342Z,1.70
2023-11-04T07:31:54.247Z,1.65
2023-11-04T07:34:21.982Z,1.80
2023-11-04T07:36:49.566Z,1.62
2023-11-04T07:39:17.363Z,2.37
2023-11-04T07:41:45.026Z,1.92
2023-11-04T07:44:12.658Z,2.60
2023-11-04T07:46:41.268Z,2.45
2023-11-04T07:49:08.672Z,3.85
2023-11-04T07:51:36.164Z,2.47
2023-11-04T07:54:06.176Z,2.67
2023-11-04T07:56:33.563Z,2.37
2023-11-04T07:59:00.995Z,2.33
2023-11-04T08:01:28.736Z,2.37
2023-11-04T08:03:56.688Z,2.28
2023-11-04T08:06:24.390Z,2.83
2023-11-04T08:08:52.135Z,2.90
2023-11-04T08:11:19.899Z,2.30
2023-11-04T08:13:47.305Z,2.70
2023-11-04T08:16:14.778Z,2.55
2023-11-04T08:18:43.020Z,2.65
2023-11-04T08:21:10.536Z,2.37
2023-11-04T08:23:38.006Z,3.30
2023-11-04T08:26:05.921Z,2.65
2023-11-04T08:28:33.830Z,1.98
2023-11-04T08:31:02.023Z,2.50
2023-11-04T08:33:29.797Z,2.70
2023-11-04T08:35:57.652Z,2.58
2023-11-04T08:38:25.182Z,2.90
2023-11-04T08:40:53.409Z,2.67
2023-11-04T08:43:20.817Z,2.33
2023-11-04T08:45:48.749Z,1.90
2023-11-04T08:48:17.208Z,1.70
2023-11-04T08:50:44.700Z,1.67
2023-11-04T08:53:12.122Z,1.73
2023-11-04T08:55:39.863Z,1.20
2023-11-04T08:58:07.326Z,1.73
2023-11-04T09:00:35.306Z,2.00
2023-11-04T09:03:03.125Z,1.73
2023-11-04T09:05:33.837Z,1.50
2023-11-04T09:08:02.476Z,1.23
2023-11-04T09:10:30.227Z,1.50
2023-11-04T09:12:58.285Z,1.67
2023-11-04T09:15:26.076Z,1.70
2023-11-04T09:17:53.931Z,1.83
2023-11-04T09:20:21.424Z,1.60
2023-11-04T09:22:49.614Z,1.55
2023-11-04T09:25:17.314Z,1.23
2023-11-04T09:27:44.721Z,1.52
2023-11-04T09:30:12.760Z,1.27
2023-11-04T09:32:43.236Z,1.20
2023-11-04T09:35:13.943Z,1.35
2023-11-04T09:37:45.331Z,1.60
2023-11-04T09:40:16.043Z,1.40
2023-11-04T09:42:45.376Z,1.12
2023-11-04T09:45:13.007Z,1.42
2023-11-04T09:47:40.599Z,1.00
2023-11-04T09:50:09.179Z,1.08
2023-11-04T09:52:38.386Z,1.20
2023-11-04T09:55:07.076Z,1.15
2023-11-04T09:57:35.932Z,2.00
2023-11-04T10:00:04.709Z,1.17
2023-11-04T10:02:39.971Z,1.42
2023-11-04T10:05:09.069Z,0.80
2023-11-04T10:07:37.346Z,1.10
2023-11-04T10:10:16.454Z,0.80
2023-11-04T10:12:49.914Z,0.88
2023-11-04T10:15:17.348Z,0.68
2023-11-04T10:17:44.724Z,1.00
2023-11-04T10:20:13.497Z,1.00
2023-11-04T10:22:40.942Z,0.62
2023-11-04T10:25:08.754Z,1.27
2023-11-04T10:27:40.239Z,0.88
2023-11-04T10:30:08.729Z,0.80
2023-11-04T10:32:37.738Z,1.08
2023-11-04T10:35:11.796Z,0.80
2023-11-04T10:37:40.826Z,0.55
2023-11-04T10:40:09.308Z,0.90
2023-11-04T10:42:41.306Z,0.80
2023-11-04T10:47:58.127Z,0.68
2023-11-04T10:50:43.087Z,0.52
2023-11-04T10:53:39.216Z,1.30
2023-11-04T10:56:08.281Z,0.93
2023-11-04T10:58:42.052Z,1.08
2023-11-04T11:01:10.353Z,0.95
2023-11-04T11:03:38.766Z,1.20
2023-11-04T11:06:06.712Z,0.80
2023-11-04T11:08:34.398Z,1.00
2023-11-04T11:11:15.137Z,1.20
2023-11-04T11:13:43.057Z,0.98
2023-11-04T11:16:11.107Z,1.20
2023-11-04T11:18:39.822Z,1.50
2023-11-04T11:21:11.594Z,1.20
2023-11-04T11:23:39.698Z,1.27
2023-11-04T11:26:14.928Z,1.45
2023-11-04T11:28:43.293Z,1.80
2023-11-04T11:31:14.728Z,1.92
2023-11-04T11:33:43.769Z,1.42
2023-11-04T11:36:15.325Z,1.77
2023-11-04T11:38:46.792Z,1.60
2023-11-04T11:41:16.245Z,1.90
2023-11-04T11:43:44.899Z,1.87
2023-11-04T11:46:12.723Z,1.67
2023-11-04T11:48:41.813Z,1.10
2023-11-04T11:51:12.607Z,0.93
2023-11-04T11:53:45.480Z,1.58
2023-11-04T11:56:13.709Z,1.67
2023-11-04T11:58:41.354Z,1.20
2023-11-04T12:01:09.701Z,1.70
2023-11-04T12:03:38.115Z,1.67
2023-11-04T12:06:06.410Z,0.93
2023-11-04T12:08:34.621Z,0.70
2023-11-04T12:11:02.305Z,0.82
2023-11-04T12:13:29.858Z,0.50
2023-11-04T12:15:57.511Z,1.23
2023-11-04T12:18:27.453Z,0.95
2023-11-04T12:20:54.976Z,1.10
2023-11-04T12:23:28.139Z,0.82
2023-11-04T12:25:57.472Z,0.80
2023-11-04T12:28:26.730Z,1.08
2023-11-04T12:31:04.674Z,1.10
2023-11-04T12:36:07.612Z,1.00
2023-11-04T12:41:13.165Z,1.10
2023-11-04T12:43:43.335Z,1.10
2023-11-04T12:46:12.209Z,1.15
2023-11-04T12:48:39.957Z,1.10
2023-11-04T12:51:09.697Z,1.10
2023-11-04T12:53:38.438Z,1.30
2023-11-04T12:56:06.434Z,1.30
2023-11-04T12:58:34.092Z,1.27
2023-11-04T13:01:01.587Z,1.00
2023-11-04T13:03:29.248Z,1.00
2023-11-04T13:05:57.012Z,0.80
2023-11-04T13:08:24.525Z,1.30
2023-11-04T13:10:53.686Z,2.92
2023-11-04T13:13:21.459Z,1.80
2023-11-04T13:15:49.947Z,1.40
2023-11-04T13:18:18.503Z,1.08
2023-11-04T13:20:46.334Z,1.10
2023-11-04T13:23:16.207Z,0.90
2023-11-04T13:25:45.059Z,1.08
2023-11-04T13:28:12.893Z,7.30
2023-11-04T13:30:40.479Z,6.57
2023-11-04T13:33:09.128Z,8.38
2023-11-04T13:35:37.220Z,3.08
2023-11-04T13:38:04.673Z,1.70
2023-11-04T13:40:32.121Z,3.22
2023-11-04T13:43:00.378Z,7.40
2023-11-04T13:45:27.786Z,3.35
2023-11-04T13:47:55.224Z,2.75
2023-11-04T13:50:23.685Z,3.50
2023-11-04T13:52:51.413Z,3.00
2023-11-04T13:55:18.983Z,2.67
2023-11-04T13:57:47.020Z,2.25
2023-11-04T14:00:14.720Z,0.93
2023-11-04T14:02:43.200Z,1.85
2023-11-04T14:05:11.019Z,1.40
2023-11-04T14:07:38.501Z,1.08
2023-11-04T14:10:08.562Z,2.58
2023-11-04T14:12:36.353Z,5.28
2023-11-04T14:15:04.367Z,2.17
2023-11-04T14:17:32.324Z,1.23
2023-11-04T14:20:00.417Z,1.80
2023-11-04T14:22:27.918Z,2.15
2023-11-04T14:24:55.786Z,1.92
2023-11-04T14:27:23.219Z,1.30
2023-11-04T14:29:50.618Z,1.67
2023-11-04T14:32:18.320Z,1.60
2023-11-04T14:34:49.898Z,1.27
2023-11-04T14:37:17.908Z,1.90
2023-11-04T14:39:45.652Z,2.45
2023-11-04T14:42:14.734Z,1.95
2023-11-04T14:44:42.495Z,1.67
2023-11-04T14:47:09.921Z,1.90
2023-11-04T14:49:37.431Z,2.60
2023-11-04T14:52:05.584Z,2.70
2023-11-04T14:54:33.037Z,3.08
2023-11-04T14:57:03.582Z,3.00
2023-11-04T14:59:31.510Z,3.10
2023-11-04T15:01:58.934Z,3.03
2023-11-04T15:04:26.552Z,11.18
2023-11-04T15:06:54.274Z,16.17
2023-11-04T15:09:21.850Z,5.95
2023-11-04T15:11:49.449Z,5.68
2023-11-04T15:14:17.929Z,4.57
2023-11-04T15:16:45.566Z,5.55
2023-11-04T15:19:13.200Z,4.55
2023-11-04T15:21:40.999Z,4.70
2023-11-04T15:24:09.185Z,6.62
2023-11-04T15:26:37.017Z,5.97
2023-11-04T15:29:04.818Z,6.35
2023-11-04T15:31:32.221Z,6.45
2023-11-04T15:34:00.006Z,7.20
2023-11-04T15:36:27.873Z,10.98
2023-11-04T15:38:56.654Z,12.80
2023-11-04T15:41:24.146Z,18.23
2023-11-04T15:43:51.960Z,14.07
2023-11-04T15:46:19.448Z,17.52
2023-11-04T15:48:46.934Z,11.23
2023-11-04T15:51:14.662Z,11.32
2023-11-04T15:53:42.087Z,11.63
2023-11-04T15:56:09.576Z,8.35
2023-11-04T15:58:37.271Z,6.87
2023-11-04T16:01:05.082Z,6.68
2023-11-04T16:03:32.858Z,6.72
2023-11-04T16:06:00.617Z,6.30
2023-11-04T16:08:27.995Z,6.47
2023-11-04T16:10:55.996Z,7.25
2023-11-04T16:13:23.719Z,6.78
2023-11-04T16:15:51.433Z,8.10
2023-11-04T16:18:19.762Z,6.80
2023-11-04T16:20:47.162Z,7.75
2023-11-04T16:23:14.673Z,9.30
2023-11-04T16:25:42.353Z,8.57
2023-11-04T16:28:09.780Z,8.75
2023-11-04T16:30:37.352Z,7.10
2023-11-04T16:33:05.225Z,7.32
2023-11-04T16:35:32.726Z,7.60
2023-11-04T16:38:03.520Z,7.30
2023-11-04T16:40:31.223Z,8.32
2023-11-04T16:42:58.625Z,8.95
2023-11-04T16:45:28.055Z,9.43
2023-11-04T16:47:55.855Z,9.93
2023-11-04T16:50:23.440Z,10.85
2023-11-04T16:52:50.925Z,11.15
2023-11-04T16:55:19.049Z,10.32
2023-11-04T16:57:46.506Z,10.35
2023-11-04T17:00:15.014Z,9.95
2023-11-04T17:02:42.975Z,9.38
2023-11-04T17:05:10.666Z,9.07
2023-11-04T17:07:40.278Z,9.85
2023-11-04T17:10:09.018Z,11.55
2023-11-04T17:12:36.589Z,10.15
2023-11-04T17:15:06.334Z,10.85
2023-11-04T17:17:34.500Z,13.77
2023-11-04T17:20:01.928Z,15.85
2023-11-04T17:22:29.405Z,12.63
2023-11-04T17:24:57.145Z,11.90
2023-11-04T17:27:24.583Z,11.18
2023-11-04T17:29:52.703Z,10.45
2023-11-04T17:32:20.976Z,8.98
2023-11-04T17:34:48.454Z,8.57
2023-11-04T17:37:15.900Z,7.90
2023-11-04T17:39:43.618Z,7.30
2023-11-04T17:42:11.778Z,6.37
2023-11-04T17:44:40.198Z,6.53
2023-11-04T17:47:08.066Z,6.85
2023-11-04T17:49:40.930Z,7.43
2023-11-04T17:52:08.726Z,8.07
2023-11-04T17:54:36.769Z,11.93
2023-11-04T17:57:06.922Z,26.40
2023-11-04T17:59:35.067Z,38.80
2023-11-04T18:02:03.424Z,44.28
2023-11-04T18:04:31.296Z,35.38
2023-11-04T18:06:59.120Z,28.77
2023-11-04T18:09:26.546Z,27.85
2023-11-04T18:11:55.240Z,22.67
2023-11-04T18:14:22.743Z,15.90
2023-11-04T18:16:50.389Z,11.55
2023-11-04T18:19:18.411Z,8.75
2023-11-04T18:21:48.724Z,5.75
2023-11-04T18:24:18.925Z,5.65
2023-11-04T18:26:46.672Z,6.50
2023-11-04T18:29:14.378Z,5.75
2023-11-04T18:31:41.863Z,5.70
2023-11-04T18:34:09.628Z,5.00
2023-11-04T18:36:37.685Z,4.60
2023-11-04T18:39:05.173Z,4.20
2023-11-04T18:41:32.915Z,4.62
2023-11-04T18:44:00.537Z,3.70
2023-11-04T18:46:29.090Z,3.85
2023-11-04T18:48:57.984Z,3.97
2023-11-04T18:51:27.443Z,5.45
2023-11-04T18:53:54.950Z,4.00
2023-11-04T18:56:22.717Z,4.18
2023-11-04T18:58:50.162Z,3.90
2023-11-04T19:01:22.320Z,3.45
2023-11-04T19:03:50.561Z,3.60
2023-11-04T19:06:19.402Z,3.25
2023-11-04T19:08:47.444Z,3.65
2023-11-04T19:11:15.162Z,3.40
2023-11-04T19:13:42.715Z,3.35
2023-11-04T19:16:10.465Z,2.95
2023-11-04T19:18:39.099Z,3.53
2023-11-04T19:21:10.539Z,3.22
2023-11-04T19:23:38.615Z,3.17
2023-11-04T19:26:06.577Z,3.65
2023-11-04T19:28:33.945Z,3.60
2023-11-04T19:31:01.740Z,2.92
2023-11-04T19:33:31.172Z,3.05
2023-11-04T19:35:59.305Z,2.87
2023-11-04T19:38:27.006Z,2.90
2023-11-04T19:40:54.526Z,2.90
2023-11-04T19:43:22.095Z,3.45
2023-11-04T19:45:49.862Z,2.78
2023-11-04T19:48:17.324Z,3.53
2023-11-04T19:50:45.236Z,5.15
2023-11-04T19:53:12.990Z,6.00
2023-11-04T19:55:40.465Z,6.05
2023-11-04T19:58:08.220Z,6.07
2023-11-04T20:00:36.076Z,7.55
2023-11-04T20:03:04.850Z,6.62
2023-11-04T20:05:32.460Z,6.20
2023-11-04T20:07:59.951Z,6.20
2023-11-04T20:10:27.843Z,6.37
2023-11-04T20:12:58.406Z,5.90
2023-11-04T20:15:28.409Z,5.85
2023-11-04T20:17:56.221Z,5.40
2023-11-04T20:20:23.694Z,5.32
2023-11-04T20:22:51.803Z,5.35
2023-11-04T20:25:21.681Z,4.78
2023-11-04T20:27:49.401Z,5.07
2023-11-04T20:30:16.787Z,4.20
2023-11-04T20:32:44.523Z,3.87
2023-11-04T20:35:12.215Z,6.72
2023-11-04T20:37:42.041Z,5.90
2023-11-04T20:40:11.931Z,5.07
2023-11-04T20:42:39.995Z,5.70
2023-11-04T20:45:08.140Z,5.03
2023-11-04T20:47:36.011Z,5.62
2023-11-04T20:50:06.680Z,5.90
2023-11-04T20:52:37.127Z,6.53
2023-11-04T20:55:05.010Z,5.37
2023-11-04T20:57:33.058Z,5.32
2023-11-04T21:00:00.750Z,5.60
2023-11-04T21:02:28.269Z,5.37
2023-11-04T21:04:55.962Z,5.68
2023-11-04T21:07:23.992Z,5.93
2023-11-04T21:09:51.797Z,6.78
2023-11-04T21:12:19.266Z,6.00
2023-11-04T21:14:46.959Z,6.85
2023-11-04T21:17:14.604Z,6.50
2023-11-04T21:19:42.032Z,6.37
2023-11-04T21:22:10.220Z,5.57
2023-11-04T21:24:38.017Z,5.32
2023-11-04T21:27:05.791Z,5.50
2023-11-04T21:29:33.466Z,6.37
2023-11-04T21:32:01.111Z,6.22
2023-11-04T21:34:29.724Z,7.05
2023-11-04T21:36:58.322Z,6.97
2023-11-04T21:39:28.423Z,7.00
2023-11-04T21:41:57.840Z,6.95
2023-11-04T21:44:25.718Z,6.37
2023-11-04T21:46:53.151Z,6.80
2023-11-04T21:49:20.638Z,7.53
2023-11-04T21:51:48.399Z,7.03
2023-11-04T21:54:17.503Z,6.70
2023-11-04T21:56:45.101Z,5.75
2023-11-04T21:59:12.873Z,6.10
2023-11-04T22:01:40.591Z,5.68
2023-11-04T22:04:08.630Z,6.25
2023-11-04T22:06:37.462Z,5.57
2023-11-04T22:09:07.778Z,4.82
2023-11-04T22:11:35.485Z,5.45
2023-11-04T22:14:04.843Z,4.87
2023-11-04T22:16:32.332Z,4.78
2023-11-04T22:19:00.120Z,4.90
2023-11-04T22:21:28.997Z,4.87
2023-11-04T22:23:56.419Z,4.55
2023-11-04T22:26:24.141Z,4.65
2023-11-04T22:28:51.560Z,4.30
2023-11-04T22:31:19.004Z,4.15
2023-11-04T22:33:49.045Z,4.55
2023-11-04T22:36:16.486Z,5.32
2023-11-04T22:38:43.955Z,5.25
2023-11-04T22:41:11.668Z,5.07
2023-11-04T22:43:39.414Z,5.50
2023-11-04T22:46:06.938Z,5.28
2023-11-04T22:48:34.811Z,4.75
2023-11-04T22:51:02.262Z,4.93
2023-11-04T22:53:30.304Z,5.00
2023-11-04T22:55:58.025Z,4.90
2023-11-04T22:58:25.488Z,4.85
2023-11-04T23:00:53.036Z,4.80
2023-11-04T23:03:20.888Z,4.70
2023-11-04T23:05:48.539Z,4.60
2023-11-04T23:08:16.643Z,4.20
2023-11-04T23:10:44.300Z,4.68
2023-11-04T23:13:11.760Z,4.85
2023-11-04T23:15:39.224Z,4.50
2023-11-04T23:18:07.612Z,4.62
2023-11-04T23:20:35.264Z,5.20
2023-11-04T23:23:02.695Z,4.70
2023-11-04T23:25:30.455Z,4.85
2023-11-04T23:27:57.993Z,4.80
2023-11-04T23:30:25.489Z,4.70
2023-11-04T23:32:53.199Z,4.20
2023-11-04T23:35:20.706Z,4.10
2023-11-04T23:37:48.506Z,4.97
2023-11-04T23:40:16.693Z,5.18
2023-11-04T23:42:44.173Z,4.10
2023-11-04T23:45:11.649Z,4.50
2023-11-04T23:47:39.417Z,4.60
2023-11-04T23:50:07.991Z,5.72
2023-11-04T23:52:35.428Z,4.60
2023-11-04T23:55:03.569Z,5.28
2023-11-04T23:57:31.244Z,4.40
2023-11-04T23:59:58.629Z,4.80
